This is the latest recevied weather packets stored in our database for station/object DH5RAE-11. If no packets are shown the sender has not sent any weather packets the latest 10 day(s).
| Time | Temp. | Humidity | Pressure | Rain* | Wind** | Luminosity | Snow |
|---|---|---|---|---|---|---|---|
| 1787493918 | 22.22° C | 56% | 1024.7 hPa | 0 mm | - | - | - |
| 1787493249 | 22.78° C | 55% | 1024.8 hPa | 0 mm | - | - | - |
| 1787492649 | 23.33° C | 55% | 1024.8 hPa | 0 mm | - | - | - |
| 1787492048 | 23.33° C | 57% | 1024.8 hPa | 0 mm | - | - | - |
| 1787491448 | 23.33° C | 56% | 1024.8 hPa | 0 mm | - | - | - |
| 1787490848 | 23.33° C | 54% | 1024.8 hPa | 0 mm | - | - | - |
| 1787490247 | 22.78° C | 57% | 1024.8 hPa | 0 mm | - | - | - |
| 1787489508 | 22.78° C | 55% | 1024.8 hPa | 0 mm | - | - | - |
| 1787488907 | 22.78° C | 56% | 1024.9 hPa | 0 mm | - | - | - |
| 1787488306 | 21.11° C | 61% | 1024.9 hPa | 0 mm | - | - | - |
| 1787487704 | 21.11° C | 61% | 1025 hPa | 0 mm | - | - | - |
| 1787487103 | 21.11° C | 61% | 1025.1 hPa | 0 mm | - | - | - |
| 1787486502 | 21.67° C | 61% | 1025.1 hPa | 0 mm | - | - | - |
| 1787485902 | 22.78° C | 58% | 1025.1 hPa | 0 mm | - | - | - |
| 1787485301 | 22.78° C | 59% | 1025 hPa | 0 mm | - | - | - |
| 1787484630 | 21.67° C | 61% | 1025 hPa | 0 mm | - | - | - |
| 1787483823 | 21.67° C | 61% | 1025.1 hPa | 0 mm | - | - | - |
| 1787483155 | 21.11° C | 62% | 1025.1 hPa | 0 mm | - | - | - |
| 1787482554 | 20° C | 64% | 1025.3 hPa | 0 mm | - | - | - |
| 1787481954 | 20.56° C | 62% | 1025.3 hPa | 0 mm | - | - | - |
| 1787481354 | 20° C | 64% | 1025.3 hPa | 0 mm | - | - | - |
| 1787480753 | 19.44° C | 63% | 1025.4 hPa | 0 mm | - | - | - |
| 1787480153 | 19.44° C | 65% | 1025.5 hPa | 0 mm | - | - | - |
| 1787479347 | 18.89° C | 67% | 1025.5 hPa | 0 mm | - | - | - |
| 1787478746 | 18.89° C | 69% | 1025.5 hPa | 0 mm | - | - | - |
* Rain latest hour (hover to see other rain measurements)
** Current wind speed in m/s (hover to see current wind gust speed)